createdAt,value
2018-04-18T00:00:02.659Z,8.50
2018-04-18T00:02:30.198Z,8.50
2018-04-18T00:04:57.698Z,8.60
2018-04-18T00:07:25.294Z,8.60
2018-04-18T00:09:52.818Z,8.60
2018-04-18T00:12:20.318Z,8.60
2018-04-18T00:14:47.807Z,8.60
2018-04-18T00:17:15.334Z,8.60
2018-04-18T00:19:42.827Z,8.60
2018-04-18T00:22:11.090Z,8.60
2018-04-18T00:24:38.659Z,8.60
2018-04-18T00:27:06.918Z,8.60
2018-04-18T00:29:34.411Z,8.60
2018-04-18T00:32:01.951Z,8.60
2018-04-18T00:34:29.442Z,8.60
2018-04-18T00:36:57.778Z,8.60
2018-04-18T00:39:25.294Z,8.60
2018-04-18T00:41:52.852Z,8.50
2018-04-18T00:44:20.359Z,8.50
2018-04-18T00:46:47.927Z,8.40
2018-04-18T00:49:15.419Z,8.40
2018-04-18T00:51:43.676Z,8.30
2018-04-18T00:54:11.207Z,8.30
2018-04-18T00:56:38.706Z,8.20
2018-04-18T00:59:06.967Z,8.10
2018-04-18T01:01:34.499Z,8.10
2018-04-18T01:04:01.999Z,8.10
2018-04-18T01:06:30.265Z,8.10
2018-04-18T01:08:57.811Z,8.10
2018-04-18T01:11:25.317Z,8.10
2018-04-18T01:13:53.575Z,8.00
2018-04-18T01:16:21.142Z,8.00
2018-04-18T01:18:49.408Z,8.00
2018-04-18T01:21:16.919Z,7.90
2018-04-18T01:23:44.447Z,7.90
2018-04-18T01:26:12.710Z,7.80
2018-04-18T01:28:40.246Z,7.80
2018-04-18T01:31:07.807Z,7.80
2018-04-18T01:33:35.314Z,7.80
2018-04-18T01:36:02.817Z,7.70
2018-04-18T01:38:30.352Z,7.70
2018-04-18T01:40:57.846Z,7.70
2018-04-18T01:43:25.355Z,7.70
2018-04-18T01:45:53.642Z,7.70
2018-04-18T01:48:21.147Z,7.70
2018-04-18T01:50:48.639Z,7.70
2018-04-18T01:53:16.967Z,7.80
2018-04-18T01:55:44.467Z,7.80
2018-04-18T01:58:11.963Z,7.80
2018-04-18T02:00:39.502Z,7.80
2018-04-18T02:03:07.764Z,7.90
2018-04-18T02:05:35.269Z,7.90
2018-04-18T02:08:02.815Z,7.90
2018-04-18T02:10:30.335Z,7.90
2018-04-18T02:12:57.839Z,8.00
2018-04-18T02:15:26.195Z,7.90
2018-04-18T02:17:53.697Z,8.00
2018-04-18T02:20:21.191Z,8.00
2018-04-18T02:22:48.719Z,8.00
2018-04-18T02:25:16.214Z,8.10
2018-04-18T02:27:43.704Z,8.10
2018-04-18T02:30:11.223Z,8.00
2018-04-18T02:32:38.718Z,8.00
2018-04-18T02:35:06.219Z,8.00
2018-04-18T02:37:33.794Z,7.90
2018-04-18T02:40:01.292Z,7.90
2018-04-18T02:42:28.789Z,7.90
2018-04-18T02:44:56.587Z,7.80
2018-04-18T02:47:24.091Z,7.80
2018-04-18T02:49:51.583Z,7.80
2018-04-18T02:52:19.111Z,7.70
2018-04-18T02:54:47.374Z,7.70
2018-04-18T02:57:14.870Z,7.60
2018-04-18T02:59:42.437Z,7.60
2018-04-18T03:02:09.935Z,7.60
2018-04-18T03:04:37.430Z,7.60
2018-04-18T03:07:04.967Z,7.60
2018-04-18T03:09:32.478Z,7.60
2018-04-18T03:11:59.970Z,7.60
2018-04-18T03:14:27.499Z,7.50
2018-04-18T03:16:54.999Z,7.50
2018-04-18T03:19:22.495Z,7.50
2018-04-18T03:21:50.038Z,7.50
2018-04-18T03:24:17.540Z,7.50
2018-04-18T03:26:45.542Z,7.60
2018-04-18T03:29:13.115Z,7.60
2018-04-18T03:31:40.611Z,7.60
2018-04-18T03:34:08.883Z,7.70
2018-04-18T03:36:36.408Z,7.60
2018-04-18T03:39:03.906Z,7.70
2018-04-18T03:41:32.174Z,7.60
2018-04-18T03:43:59.723Z,7.60
2018-04-18T03:46:27.228Z,7.60
2018-04-18T03:48:54.726Z,7.60
2018-04-18T03:51:22.286Z,7.60
2018-04-18T03:53:49.782Z,7.60
2018-04-18T03:56:17.274Z,7.60
2018-04-18T03:58:44.795Z,7.60
2018-04-18T04:01:12.287Z,7.60
2018-04-18T04:03:39.773Z,7.60
2018-04-18T04:06:07.775Z,7.60
2018-04-18T04:08:35.279Z,7.70
2018-04-18T04:11:02.781Z,7.70
2018-04-18T04:13:30.330Z,7.70
2018-04-18T04:15:58.596Z,7.70
2018-04-18T04:18:37.794Z,7.70
2018-04-18T04:21:17.007Z,7.70
2018-04-18T04:23:56.169Z,7.70
2018-04-18T04:26:24.246Z,7.70
2018-04-18T04:28:51.754Z,7.70
2018-04-18T04:31:19.310Z,7.70
2018-04-18T04:33:46.814Z,7.70
2018-04-18T04:36:14.308Z,7.80
2018-04-18T04:38:41.830Z,7.80
2018-04-18T04:41:09.332Z,7.80
2018-04-18T04:43:37.010Z,7.80
2018-04-18T04:46:04.538Z,7.90
2018-04-18T04:48:32.034Z,7.90
2018-04-18T04:50:59.543Z,7.90
2018-04-18T04:53:27.095Z,7.90
2018-04-18T04:55:54.587Z,8.00
2018-04-18T04:58:22.086Z,8.10
2018-04-18T05:00:50.526Z,8.20
2018-04-18T05:03:18.026Z,8.20
2018-04-18T05:05:45.563Z,8.30
2018-04-18T05:08:13.099Z,8.30
2018-04-18T05:10:40.605Z,8.40
2018-04-18T05:13:08.886Z,8.50
2018-04-18T05:15:36.420Z,8.50
2018-04-18T05:18:03.926Z,8.70
2018-04-18T05:20:31.423Z,8.70
2018-04-18T05:22:58.962Z,8.80
2018-04-18T05:25:26.460Z,8.90
2018-04-18T05:27:54.499Z,9.00
2018-04-18T05:30:22.070Z,9.00
2018-04-18T05:32:49.576Z,9.10
2018-04-18T05:35:17.839Z,9.30
2018-04-18T05:37:45.365Z,9.30
2018-04-18T05:40:12.858Z,9.50
2018-04-18T05:42:40.353Z,9.60
2018-04-18T05:45:08.675Z,10.10
2018-04-18T05:47:36.174Z,10.10
2018-04-18T05:50:04.455Z,10.60
2018-04-18T05:52:32.030Z,10.50
2018-04-18T05:55:00.294Z,10.90
2018-04-18T05:57:27.795Z,10.90
2018-04-18T05:59:55.326Z,11.00
2018-04-18T06:02:23.607Z,11.30
2018-04-18T06:04:51.138Z,11.20
2018-04-18T06:07:18.662Z,11.30
2018-04-18T06:09:46.178Z,11.40
2018-04-18T06:12:14.451Z,11.50
2018-04-18T06:14:41.987Z,11.60
2018-04-18T06:17:09.482Z,11.70
2018-04-18T06:19:36.982Z,11.80
2018-04-18T06:22:04.503Z,11.90
2018-04-18T06:24:32.003Z,12.00
2018-04-18T06:26:59.497Z,12.10
2018-04-18T06:29:27.078Z,12.30
2018-04-18T06:31:54.578Z,12.40
2018-04-18T06:34:22.074Z,12.50
2018-04-18T06:39:52.606Z,12.70
2018-04-18T06:42:20.099Z,12.80
2018-04-18T06:44:47.602Z,12.90
2018-04-18T06:47:15.147Z,12.90
2018-04-18T06:49:42.651Z,13.00
2018-04-18T06:52:10.142Z,13.20
2018-04-18T06:54:37.714Z,13.30
2018-04-18T06:57:05.982Z,13.50
2018-04-18T06:59:33.486Z,13.40
2018-04-18T07:02:01.009Z,13.50
2018-04-18T07:04:29.271Z,13.50
2018-04-18T07:06:56.774Z,13.50
2018-04-18T07:09:24.322Z,13.50
2018-04-18T07:11:51.819Z,13.50
2018-04-18T07:14:19.318Z,13.50
2018-04-18T07:16:46.887Z,13.50
2018-04-18T07:19:14.383Z,13.60
2018-04-18T07:21:41.887Z,13.60
2018-04-18T07:24:09.410Z,13.70
2018-04-18T07:26:36.918Z,13.70
2018-04-18T07:29:04.427Z,13.70
2018-04-18T07:31:31.970Z,13.70
2018-04-18T07:34:00.919Z,13.70
2018-04-18T07:36:28.423Z,13.80
2018-04-18T07:38:56.003Z,13.80
2018-04-18T07:41:23.510Z,13.80
2018-04-18T07:43:51.006Z,13.80
2018-04-18T07:46:18.543Z,13.90
2018-04-18T07:48:46.050Z,13.90
2018-04-18T07:51:13.558Z,13.90
2018-04-18T07:53:41.106Z,13.90
2018-04-18T07:56:08.606Z,13.90
2018-04-18T07:58:36.114Z,13.80
2018-04-18T08:01:03.730Z,13.70
2018-04-18T08:03:31.348Z,13.60
2018-04-18T08:05:58.920Z,13.70
2018-04-18T08:08:26.447Z,13.80
2018-04-18T08:10:53.955Z,13.80
2018-04-18T08:13:21.591Z,13.80
2018-04-18T08:15:49.138Z,13.80
2018-04-18T08:18:16.640Z,13.90
2018-04-18T08:20:44.146Z,13.90
2018-04-18T08:23:11.723Z,13.80
2018-04-18T08:25:39.272Z,13.80
2018-04-18T08:28:06.791Z,13.80
2018-04-18T08:30:34.379Z,13.90
2018-04-18T08:33:01.884Z,14.00
2018-04-18T08:35:29.511Z,14.20
2018-04-18T08:37:57.065Z,14.50
2018-04-18T08:40:24.567Z,14.90
2018-04-18T08:42:52.127Z,15.30
2018-04-18T08:45:19.678Z,15.40
2018-04-18T08:47:47.185Z,15.60
2018-04-18T08:50:14.692Z,15.80
2018-04-18T08:52:42.219Z,15.80
2018-04-18T08:55:09.722Z,15.90
2018-04-18T08:57:37.223Z,16.00
2018-04-18T09:00:04.819Z,16.00
2018-04-18T09:02:32.319Z,16.00
2018-04-18T09:04:59.843Z,16.00
2018-04-18T09:07:27.400Z,16.10
2018-04-18T09:09:54.894Z,16.20
2018-04-18T09:12:22.397Z,16.20
2018-04-18T09:14:49.919Z,16.30
2018-04-18T09:17:17.421Z,16.30
2018-04-18T09:19:44.917Z,16.30
2018-04-18T09:22:12.449Z,16.20
2018-04-18T09:24:39.951Z,16.20
2018-04-18T09:27:07.460Z,16.10
2018-04-18T09:29:35.011Z,16.10
2018-04-18T09:32:03.279Z,16.00
2018-04-18T09:34:30.791Z,16.00
2018-04-18T09:36:58.371Z,16.00
2018-04-18T09:39:25.875Z,16.00
2018-04-18T09:41:53.386Z,16.00
2018-04-18T09:44:20.956Z,16.10
2018-04-18T09:46:48.463Z,16.20
2018-04-18T09:49:15.966Z,16.40
2018-04-18T09:51:43.507Z,16.60
2018-04-18T09:54:11.011Z,16.80
2018-04-18T09:56:38.510Z,17.00
2018-04-18T09:59:06.061Z,17.30
2018-04-18T10:01:40.035Z,17.90
2018-04-18T10:04:09.505Z,17.90
2018-04-18T10:06:37.015Z,18.10
2018-04-18T10:09:06.130Z,18.10
2018-04-18T10:11:33.715Z,18.00
2018-04-18T10:14:01.226Z,18.00
2018-04-18T10:16:28.726Z,18.00
2018-04-18T10:18:56.267Z,18.10
2018-04-18T10:21:23.770Z,18.40
2018-04-18T10:23:51.279Z,18.70
2018-04-18T10:26:18.850Z,18.80
2018-04-18T10:28:47.122Z,18.80
2018-04-18T10:31:14.698Z,18.80
2018-04-18T10:33:42.991Z,18.80
2018-04-18T10:36:10.515Z,18.80
2018-04-18T10:38:38.028Z,18.90
2018-04-18T10:41:05.609Z,18.90
2018-04-18T10:43:33.114Z,18.90
2018-04-18T10:46:00.618Z,18.80
2018-04-18T10:48:28.172Z,18.80
2018-04-18T10:50:55.683Z,18.80
2018-04-18T10:53:23.183Z,18.70
2018-04-18T10:55:50.728Z,18.60
2018-04-18T10:58:18.242Z,18.70
2018-04-18T11:00:45.750Z,18.70
2018-04-18T11:03:14.075Z,18.70
2018-04-18T11:05:41.579Z,18.70
2018-04-18T11:08:09.079Z,18.70
2018-04-18T11:10:36.647Z,18.70
2018-04-18T11:13:04.150Z,18.80
2018-04-18T11:15:31.653Z,18.80
2018-04-18T11:17:59.184Z,18.80
2018-04-18T11:20:27.459Z,19.00
2018-04-18T11:22:54.970Z,18.90
2018-04-18T11:25:22.545Z,19.00
2018-04-18T11:27:50.048Z,19.10
2018-04-18T11:30:18.399Z,19.30
2018-04-18T11:32:45.932Z,19.30
2018-04-18T11:35:13.490Z,19.40
2018-04-18T11:37:40.987Z,19.40
2018-04-18T11:40:08.520Z,19.40
2018-04-18T11:42:36.015Z,19.50
2018-04-18T11:45:03.528Z,19.50
2018-04-18T11:47:31.094Z,19.60
2018-04-18T11:49:58.591Z,19.60
2018-04-18T11:52:26.094Z,19.60
2018-04-18T11:54:53.863Z,19.70
2018-04-18T11:57:21.398Z,19.70
2018-04-18T11:59:49.659Z,19.90
2018-04-18T12:02:17.195Z,19.90
2018-04-18T12:04:44.702Z,20.10
2018-04-18T12:07:12.195Z,20.20
2018-04-18T12:09:39.759Z,20.20
2018-04-18T12:12:07.255Z,20.30
2018-04-18T12:14:34.747Z,20.30
2018-04-18T12:17:03.064Z,20.50
2018-04-18T12:19:30.575Z,20.50
2018-04-18T12:21:58.085Z,20.50
2018-04-18T12:24:25.696Z,20.50
2018-04-18T12:26:53.187Z,20.50
2018-04-18T12:29:20.685Z,20.50
2018-04-18T12:31:48.270Z,20.60
2018-04-18T12:34:15.762Z,20.80
2018-04-18T12:36:43.259Z,21.00
2018-04-18T12:39:10.801Z,21.20
2018-04-18T12:41:38.299Z,21.40
2018-04-18T12:44:05.799Z,21.50
2018-04-18T12:46:34.107Z,21.70
2018-04-18T12:49:01.628Z,21.70
2018-04-18T12:51:29.889Z,21.80
2018-04-18T12:53:58.238Z,21.80
2018-04-18T12:56:26.307Z,21.80
2018-04-18T12:58:53.801Z,21.80
2018-04-18T13:01:21.389Z,21.70
2018-04-18T13:03:49.671Z,21.50
2018-04-18T13:06:17.254Z,21.50
2018-04-18T13:08:44.790Z,21.40
2018-04-18T13:11:12.283Z,21.30
2018-04-18T13:13:39.777Z,21.20
2018-04-18T13:16:07.315Z,21.10
2018-04-18T13:18:34.819Z,21.10
2018-04-18T13:21:03.082Z,20.90
2018-04-18T13:23:30.659Z,20.80
2018-04-18T13:25:58.934Z,20.60
2018-04-18T13:28:26.430Z,20.50
2018-04-18T13:30:54.010Z,20.30
2018-04-18T13:33:21.486Z,20.10
2018-04-18T13:35:48.991Z,19.90
2018-04-18T13:38:16.547Z,19.80
2018-04-18T13:40:44.047Z,19.70
2018-04-18T13:43:11.559Z,19.60
2018-04-18T13:45:39.898Z,19.60
2018-04-18T13:48:07.403Z,19.50
2018-04-18T13:50:35.661Z,19.50
2018-04-18T13:53:03.206Z,19.40
2018-04-18T13:55:30.703Z,19.40
2018-04-18T13:57:58.962Z,19.30
2018-04-18T14:00:26.502Z,19.30
2018-04-18T14:02:54.014Z,19.30
2018-04-18T14:05:22.312Z,19.20
2018-04-18T14:07:49.925Z,19.20
2018-04-18T14:10:17.398Z,19.20
2018-04-18T14:12:45.111Z,19.20
2018-04-18T14:15:12.633Z,19.20
2018-04-18T14:17:40.143Z,19.20
2018-04-18T14:20:07.648Z,19.20
2018-04-18T14:22:35.206Z,19.30
2018-04-18T14:25:02.724Z,19.40
2018-04-18T14:27:30.230Z,19.50
2018-04-18T14:29:57.773Z,19.50
2018-04-18T14:32:25.274Z,19.60
2018-04-18T14:34:52.774Z,19.70
2018-04-18T14:37:22.064Z,19.80
2018-04-18T14:39:49.578Z,20.00
2018-04-18T14:42:17.844Z,20.40
2018-04-18T14:44:45.379Z,20.40
2018-04-18T14:47:12.974Z,20.60
2018-04-18T14:49:40.493Z,20.70
2018-04-18T14:52:08.019Z,20.60
2018-04-18T14:54:35.523Z,20.70
2018-04-18T14:57:03.018Z,20.60
2018-04-18T14:59:31.332Z,20.50
2018-04-18T15:01:58.831Z,20.40
2018-04-18T15:04:26.379Z,20.30
2018-04-18T15:06:53.954Z,20.40
2018-04-18T15:09:21.454Z,20.40
2018-04-18T15:11:48.955Z,20.50
2018-04-18T15:14:16.482Z,20.70
2018-04-18T15:16:43.979Z,20.90
2018-04-18T15:19:11.490Z,21.10
2018-04-18T15:21:39.026Z,21.20
2018-04-18T15:24:06.523Z,21.30
2018-04-18T15:26:34.014Z,21.30
2018-04-18T15:29:02.348Z,21.50
2018-04-18T15:31:29.842Z,21.50
2018-04-18T15:33:57.335Z,21.50
2018-04-18T15:36:24.880Z,21.60
2018-04-18T15:38:52.382Z,21.60
2018-04-18T15:41:19.884Z,21.70
2018-04-18T15:43:47.424Z,21.80
2018-04-18T15:46:14.926Z,21.90
2018-04-18T15:48:42.427Z,22.10
2018-04-18T15:51:10.759Z,22.00
2018-04-18T15:53:38.246Z,22.00
2018-04-18T15:56:05.739Z,21.80
2018-04-18T15:58:34.071Z,21.30
2018-04-18T16:01:01.581Z,21.20
2018-04-18T16:03:29.847Z,20.80
2018-04-18T16:05:58.146Z,20.60
2018-04-18T16:08:25.643Z,20.50
2018-04-18T16:10:53.143Z,20.40
2018-04-18T16:13:20.683Z,20.30
2018-04-18T16:15:48.184Z,20.10
2018-04-18T16:18:16.456Z,20.00
2018-04-18T16:20:44.034Z,19.90
2018-04-18T16:23:11.547Z,19.90
2018-04-18T16:25:39.079Z,19.80
2018-04-18T16:28:06.607Z,19.80
2018-04-18T16:30:40.868Z,19.70
2018-04-18T16:33:08.396Z,19.60
2018-04-18T16:35:35.895Z,19.60
2018-04-18T16:38:03.388Z,19.60
2018-04-18T16:40:30.984Z,19.50
2018-04-18T16:42:58.487Z,19.50
2018-04-18T16:45:25.996Z,19.40
2018-04-18T16:47:53.539Z,19.40
2018-04-18T16:50:21.042Z,19.30
2018-04-18T16:52:48.543Z,19.20
2018-04-18T16:55:16.062Z,19.20
2018-04-18T16:57:43.554Z,19.10
2018-04-18T17:00:11.099Z,19.10
2018-04-18T17:02:38.683Z,19.00
2018-04-18T17:05:06.147Z,19.00
2018-04-18T17:07:33.658Z,18.90
2018-04-18T17:10:01.217Z,18.80
2018-04-18T17:12:28.714Z,18.70
2018-04-18T17:14:56.212Z,18.70
2018-04-18T17:17:23.739Z,18.50
2018-04-18T17:19:51.235Z,18.40
2018-04-18T17:22:18.738Z,18.40
2018-04-18T17:24:46.260Z,18.30
2018-04-18T17:27:13.758Z,18.20
2018-04-18T17:29:41.258Z,18.10
2018-04-18T17:32:08.850Z,17.90
2018-04-18T17:34:36.355Z,17.80
2018-04-18T17:37:03.850Z,17.70
2018-04-18T17:39:32.147Z,17.50
2018-04-18T17:41:59.651Z,17.50
2018-04-18T17:44:27.142Z,17.40
2018-04-18T17:46:54.690Z,17.20
2018-04-18T17:49:22.182Z,17.10
2018-04-18T17:51:49.679Z,16.90
2018-04-18T17:54:17.277Z,16.80
2018-04-18T17:56:44.750Z,16.70
2018-04-18T17:59:13.015Z,16.40
2018-04-18T18:01:40.551Z,16.40
2018-04-18T18:04:08.043Z,16.30
2018-04-18T18:06:35.542Z,16.20
2018-04-18T18:09:03.099Z,16.10
2018-04-18T18:11:30.595Z,16.00
2018-04-18T18:13:58.091Z,16.00
2018-04-18T18:16:26.387Z,15.80
2018-04-18T18:18:53.975Z,15.80
2018-04-18T18:21:21.474Z,15.80
2018-04-18T18:23:49.907Z,15.70
2018-04-18T18:26:17.435Z,15.60
2018-04-18T18:28:44.958Z,15.50
2018-04-18T18:31:12.497Z,15.50
2018-04-18T18:33:40.005Z,15.40
2018-04-18T18:36:07.508Z,15.30
2018-04-18T18:38:35.044Z,15.20
2018-04-18T18:41:02.556Z,15.20
2018-04-18T18:43:30.056Z,15.10
2018-04-18T18:45:57.604Z,15.00
2018-04-18T18:48:25.102Z,15.00
2018-04-18T18:50:52.607Z,15.00
2018-04-18T18:53:20.140Z,14.90
2018-04-18T18:55:47.635Z,14.80
2018-04-18T18:58:15.170Z,14.80
2018-04-18T19:00:42.691Z,14.80
2018-04-18T19:03:10.958Z,14.60
2018-04-18T19:05:38.456Z,14.60
2018-04-18T19:08:06.068Z,14.50
2018-04-18T19:10:33.577Z,14.40
2018-04-18T19:13:01.107Z,14.30
2018-04-18T19:15:29.449Z,14.20
2018-04-18T19:17:56.927Z,14.20
2018-04-18T19:20:24.427Z,14.10
2018-04-18T19:22:51.959Z,14.10
2018-04-18T19:25:19.451Z,14.00
2018-04-18T19:27:46.958Z,14.00
2018-04-18T19:30:14.523Z,14.00
2018-04-18T19:32:42.019Z,13.90
2018-04-18T19:35:09.563Z,13.90
2018-04-18T19:37:37.107Z,13.80
2018-04-18T19:40:04.610Z,13.70
2018-04-18T19:42:32.895Z,13.70
2018-04-18T19:45:00.437Z,13.60
2018-04-18T19:47:27.939Z,13.60
2018-04-18T19:49:55.438Z,13.60
2018-04-18T19:52:22.966Z,13.50
2018-04-18T19:54:53.793Z,13.50
2018-04-18T19:57:21.299Z,13.50
2018-04-18T19:59:48.851Z,13.40
2018-04-18T20:02:16.355Z,13.40
2018-04-18T20:04:43.850Z,13.30
2018-04-18T20:07:14.442Z,13.30
2018-04-18T20:09:42.703Z,13.30
2018-04-18T20:12:10.205Z,13.30
2018-04-18T20:14:37.794Z,13.30
2018-04-18T20:17:05.307Z,13.30
2018-04-18T20:19:32.804Z,13.20
2018-04-18T20:22:00.347Z,13.20
2018-04-18T20:24:27.843Z,13.10
2018-04-18T20:26:55.340Z,13.10
2018-04-18T20:29:22.871Z,13.00
2018-04-18T20:31:50.371Z,13.00
2018-04-18T20:34:17.874Z,12.90
2018-04-18T20:36:47.130Z,12.90
2018-04-18T20:39:14.639Z,12.90
2018-04-18T20:41:42.139Z,12.90
2018-04-18T20:44:09.691Z,12.90
2018-04-18T20:46:37.228Z,12.80
2018-04-18T20:49:04.739Z,12.70
2018-04-18T20:51:32.275Z,12.70
2018-04-18T20:53:59.778Z,12.60
2018-04-18T20:56:27.279Z,12.50
2018-04-18T20:58:54.850Z,12.40
2018-04-18T21:01:22.358Z,12.30
2018-04-18T21:03:49.860Z,12.30
2018-04-18T21:06:17.414Z,12.30
2018-04-18T21:08:44.959Z,12.20
2018-04-18T21:11:12.459Z,12.20
2018-04-18T21:13:40.767Z,12.10
2018-04-18T21:16:08.275Z,12.10
2018-04-18T21:18:35.775Z,12.10
2018-04-18T21:21:04.126Z,12.00
2018-04-18T21:23:31.653Z,12.00
2018-04-18T21:25:59.300Z,12.00
2018-04-18T21:28:26.841Z,11.90
2018-04-18T21:30:55.103Z,11.80
2018-04-18T21:33:22.610Z,11.80
2018-04-18T21:35:50.146Z,11.80
2018-04-18T21:38:17.652Z,11.80
2018-04-18T21:40:45.146Z,11.70
2018-04-18T21:43:12.710Z,11.70
2018-04-18T21:45:40.206Z,11.70
2018-04-18T21:48:07.704Z,11.70
2018-04-18T21:50:35.246Z,11.70
2018-04-18T21:53:02.746Z,11.70
2018-04-18T21:55:30.245Z,11.70
2018-04-18T21:57:57.778Z,11.70
2018-04-18T22:00:25.288Z,11.60
2018-04-18T22:02:52.787Z,11.60
2018-04-18T22:05:20.334Z,11.50
2018-04-18T22:07:47.833Z,11.50
2018-04-18T22:10:15.336Z,11.40
2018-04-18T22:12:42.868Z,11.40
2018-04-18T22:15:10.374Z,11.30
2018-04-18T22:17:37.874Z,11.30
2018-04-18T22:20:05.403Z,11.20
2018-04-18T22:22:32.905Z,11.20
2018-04-18T22:25:00.410Z,11.20
2018-04-18T22:27:27.976Z,11.10
2018-04-18T22:29:55.496Z,11.10
2018-04-18T22:32:22.998Z,11.10
2018-04-18T22:34:50.543Z,11.00
2018-04-18T22:37:18.054Z,11.10
2018-04-18T22:39:45.559Z,11.10
2018-04-18T22:42:13.120Z,11.10
2018-04-18T22:44:41.187Z,11.10
2018-04-18T22:47:08.730Z,11.10
2018-04-18T22:49:36.273Z,11.10
2018-04-18T22:52:03.967Z,11.10
2018-04-18T22:54:31.487Z,11.00
2018-04-18T22:56:59.035Z,11.00
2018-04-18T22:59:26.616Z,11.00
2018-04-18T23:01:54.887Z,10.90
2018-04-18T23:04:23.183Z,10.80
2018-04-18T23:06:50.683Z,10.80
2018-04-18T23:09:18.182Z,10.80
2018-04-18T23:11:46.495Z,10.70
2018-04-18T23:14:13.990Z,10.60
2018-04-18T23:16:41.492Z,10.60
2018-04-18T23:19:09.031Z,10.60
2018-04-18T23:21:36.531Z,10.50
2018-04-18T23:24:04.039Z,10.40
2018-04-18T23:26:31.570Z,10.40
2018-04-18T23:28:59.074Z,10.40
2018-04-18T23:31:26.579Z,10.40
2018-04-18T23:33:54.137Z,10.30
2018-04-18T23:36:21.642Z,10.30
2018-04-18T23:38:49.147Z,10.20
2018-04-18T23:41:16.674Z,10.20
2018-04-18T23:43:44.172Z,10.10
2018-04-18T23:46:11.674Z,10.10
2018-04-18T23:48:39.239Z,10.10
2018-04-18T23:51:06.738Z,10.10
2018-04-18T23:53:34.243Z,10.10
2018-04-18T23:56:01.827Z,10.00
2018-04-18T23:58:29.336Z,10.00
